createdAt,value
2022-12-29T00:00:10.875Z,2.50
2022-12-29T00:01:11.669Z,4.00
2022-12-29T00:02:12.446Z,3.40
2022-12-29T00:03:13.271Z,3.80
2022-12-29T00:04:15.245Z,2.60
2022-12-29T00:05:14.667Z,3.50
2022-12-29T00:06:15.380Z,2.20
2022-12-29T00:07:16.097Z,2.60
2022-12-29T00:08:16.809Z,2.50
2022-12-29T00:09:17.510Z,2.50
2022-12-29T00:10:18.210Z,3.80
2022-12-29T00:11:18.943Z,2.50
2022-12-29T00:12:19.626Z,2.80
2022-12-29T00:13:20.328Z,4.70
2022-12-29T00:14:25.866Z,3.50
2022-12-29T00:15:22.633Z,2.50
2022-12-29T00:16:22.469Z,2.40
2022-12-29T00:17:23.146Z,2.00
2022-12-29T00:18:23.852Z,2.30
2022-12-29T00:19:24.555Z,2.00
2022-12-29T00:20:25.263Z,4.60
2022-12-29T00:21:25.985Z,1.80
2022-12-29T00:22:26.660Z,1.70
2022-12-29T00:23:27.368Z,1.70
2022-12-29T00:24:28.093Z,1.90
2022-12-29T00:25:28.784Z,1.90
2022-12-29T00:26:29.503Z,3.20
2022-12-29T00:27:30.668Z,3.00
2022-12-29T00:28:30.860Z,2.80
2022-12-29T00:29:31.577Z,1.80
2022-12-29T00:30:32.275Z,1.60
2022-12-29T00:31:33.004Z,2.00
2022-12-29T00:32:33.692Z,3.40
2022-12-29T00:33:34.397Z,1.70
2022-12-29T00:34:35.110Z,1.40
2022-12-29T00:35:35.835Z,1.80
2022-12-29T00:36:36.561Z,1.70
2022-12-29T00:37:37.265Z,1.70
2022-12-29T00:38:37.970Z,2.70
2022-12-29T00:39:38.692Z,1.70
2022-12-29T00:40:39.381Z,2.10
2022-12-29T00:41:40.110Z,1.50
2022-12-29T00:42:40.815Z,1.60
2022-12-29T00:43:41.521Z,5.30
2022-12-29T00:44:42.233Z,1.40
2022-12-29T00:45:42.939Z,1.60
2022-12-29T00:46:43.675Z,2.60
2022-12-29T00:47:44.362Z,1.50
2022-12-29T00:48:45.068Z,2.40
2022-12-29T00:49:45.773Z,1.50
2022-12-29T00:50:46.587Z,1.40
2022-12-29T00:51:47.371Z,1.20
2022-12-29T00:52:48.010Z,1.60
2022-12-29T00:53:48.731Z,1.50
2022-12-29T00:54:49.440Z,1.20
2022-12-29T00:55:50.125Z,1.60
2022-12-29T00:56:50.853Z,1.70
2022-12-29T00:57:51.551Z,2.20
2022-12-29T00:58:52.251Z,1.70
2022-12-29T00:59:52.961Z,1.50
2022-12-29T01:00:53.702Z,2.90
2022-12-29T01:01:54.508Z,1.60
2022-12-29T01:02:55.360Z,1.50
2022-12-29T01:04:01.868Z,6.30
2022-12-29T01:04:57.718Z,1.60
2022-12-29T01:05:57.404Z,1.50
2022-12-29T01:06:58.135Z,1.40
2022-12-29T01:07:58.846Z,2.70
2022-12-29T01:08:59.548Z,1.40
2022-12-29T01:10:00.296Z,1.30
2022-12-29T01:11:00.986Z,1.20
2022-12-29T01:12:01.708Z,1.20
2022-12-29T01:13:02.402Z,1.30
2022-12-29T01:14:03.106Z,1.50
2022-12-29T01:15:03.823Z,1.40
2022-12-29T01:16:04.546Z,3.60
2022-12-29T01:17:05.236Z,1.40
2022-12-29T01:18:06.160Z,1.20
2022-12-29T01:19:06.876Z,2.80
2022-12-29T01:20:07.447Z,1.40
2022-12-29T01:21:08.108Z,1.40
2022-12-29T01:22:08.840Z,1.20
2022-12-29T01:23:09.664Z,1.20
2022-12-29T01:24:10.369Z,1.20
2022-12-29T01:25:11.090Z,1.30
2022-12-29T01:26:11.784Z,3.20
2022-12-29T01:27:12.510Z,1.00
2022-12-29T01:28:13.207Z,3.10
2022-12-29T01:29:13.935Z,1.30
2022-12-29T01:30:14.860Z,1.20
2022-12-29T01:31:15.609Z,2.00
2022-12-29T01:32:16.304Z,1.10
2022-12-29T01:33:17.279Z,1.40
2022-12-29T01:34:17.796Z,1.10
2022-12-29T01:35:18.364Z,1.40
2022-12-29T01:36:19.075Z,1.10
2022-12-29T01:37:19.796Z,1.10
2022-12-29T01:38:20.500Z,1.10
2022-12-29T01:39:21.205Z,0.90
2022-12-29T01:40:21.910Z,1.80
2022-12-29T01:41:22.620Z,1.80
2022-12-29T01:42:23.360Z,0.90
2022-12-29T01:43:24.051Z,0.90
2022-12-29T01:44:24.762Z,0.80
2022-12-29T01:45:25.472Z,1.80
2022-12-29T01:46:26.233Z,2.50
2022-12-29T01:47:26.881Z,0.90
2022-12-29T01:48:27.595Z,2.70
2022-12-29T01:49:28.302Z,0.80
2022-12-29T01:50:29.013Z,1.00
2022-12-29T01:51:29.711Z,0.80
2022-12-29T01:52:30.434Z,1.50
2022-12-29T01:53:31.132Z,1.40
2022-12-29T01:54:31.840Z,0.80
2022-12-29T01:55:32.541Z,0.80
2022-12-29T01:56:33.254Z,2.00
2022-12-29T01:57:33.981Z,0.90
2022-12-29T01:58:34.775Z,0.80
2022-12-29T01:59:35.590Z,3.30
2022-12-29T02:00:36.305Z,0.90
2022-12-29T02:01:37.034Z,0.90
2022-12-29T02:02:37.844Z,2.60
2022-12-29T02:03:38.630Z,0.70
2022-12-29T02:04:39.372Z,0.80
2022-12-29T02:05:40.083Z,1.10
2022-12-29T02:06:40.801Z,0.80
2022-12-29T02:07:41.521Z,0.90
2022-12-29T02:08:42.245Z,2.30
2022-12-29T02:09:42.942Z,2.40
2022-12-29T02:10:43.645Z,0.80
2022-12-29T02:11:44.358Z,0.80
2022-12-29T02:12:45.085Z,0.80
2022-12-29T02:13:45.784Z,0.80
2022-12-29T02:14:46.492Z,2.20
2022-12-29T02:15:47.194Z,0.60
2022-12-29T02:16:47.974Z,0.60
2022-12-29T02:17:48.629Z,0.70
2022-12-29T02:18:49.396Z,1.50
2022-12-29T02:19:50.107Z,0.60
2022-12-29T02:20:50.825Z,0.70
2022-12-29T02:21:51.524Z,0.60
2022-12-29T02:22:52.264Z,0.70
2022-12-29T02:23:53.169Z,0.60
2022-12-29T02:24:53.881Z,0.80
2022-12-29T02:25:54.585Z,1.80
2022-12-29T02:26:55.310Z,0.60
2022-12-29T02:27:56.038Z,0.60
2022-12-29T02:28:56.730Z,0.70
2022-12-29T02:29:57.461Z,0.80
2022-12-29T02:30:58.145Z,0.70
2022-12-29T02:31:58.856Z,0.60
2022-12-29T02:32:59.562Z,0.60
2022-12-29T02:34:00.663Z,3.70
2022-12-29T02:35:00.877Z,0.60
2022-12-29T02:36:01.598Z,0.70
2022-12-29T02:37:02.319Z,0.70
2022-12-29T02:38:03.053Z,0.60
2022-12-29T02:39:04.186Z,0.60
2022-12-29T02:40:04.432Z,2.60
2022-12-29T02:41:05.206Z,0.60
2022-12-29T02:42:05.883Z,0.70
2022-12-29T02:43:06.642Z,0.70
2022-12-29T02:44:07.128Z,0.70
2022-12-29T02:45:07.969Z,0.70
2022-12-29T02:46:08.705Z,0.70
2022-12-29T02:47:09.381Z,1.60
2022-12-29T02:48:10.111Z,0.70
2022-12-29T02:49:11.167Z,0.60
2022-12-29T02:50:11.375Z,1.70
2022-12-29T02:51:12.085Z,0.70
2022-12-29T02:52:12.793Z,4.20
2022-12-29T02:53:13.535Z,2.30
2022-12-29T02:54:14.674Z,0.60
2022-12-29T02:55:15.377Z,0.50
2022-12-29T02:56:16.084Z,0.70
2022-12-29T02:57:16.808Z,0.70
2022-12-29T02:58:17.610Z,0.60
2022-12-29T02:59:18.538Z,2.60
2022-12-29T03:00:19.264Z,0.80
2022-12-29T03:01:20.107Z,1.90
2022-12-29T03:02:20.816Z,1.60
2022-12-29T03:03:21.525Z,1.90
2022-12-29T03:04:22.212Z,2.50
2022-12-29T03:05:22.910Z,0.70
2022-12-29T03:06:23.614Z,2.80
2022-12-29T03:07:24.344Z,0.60
2022-12-29T03:08:25.087Z,0.60
2022-12-29T03:09:26.190Z,0.70
2022-12-29T03:10:26.659Z,2.20
2022-12-29T03:11:27.367Z,0.70
2022-12-29T03:12:28.073Z,0.70
2022-12-29T03:13:28.811Z,0.70
2022-12-29T03:14:29.499Z,1.40
2022-12-29T03:15:30.218Z,0.80
2022-12-29T03:16:30.957Z,0.70
2022-12-29T03:17:31.619Z,1.60
2022-12-29T03:18:32.326Z,2.10
2022-12-29T03:19:33.177Z,2.40
2022-12-29T03:20:33.611Z,1.20
2022-12-29T03:21:34.364Z,1.50
2022-12-29T03:22:35.069Z,2.20
2022-12-29T03:23:35.799Z,1.50
2022-12-29T03:24:36.675Z,2.20
2022-12-29T03:25:37.379Z,0.80
2022-12-29T03:26:38.086Z,0.80
2022-12-29T03:27:38.797Z,1.40
2022-12-29T03:28:39.531Z,1.10
2022-12-29T03:29:40.676Z,1.70
2022-12-29T03:30:40.940Z,1.40
2022-12-29T03:31:41.628Z,0.80
2022-12-29T03:32:42.336Z,1.30
2022-12-29T03:33:43.040Z,0.60
2022-12-29T03:34:44.171Z,0.80
2022-12-29T03:35:44.379Z,0.80
2022-12-29T03:36:45.090Z,0.90
2022-12-29T03:37:45.797Z,0.70
2022-12-29T03:38:46.529Z,0.80
2022-12-29T03:39:47.692Z,0.80
2022-12-29T03:40:47.911Z,4.50
2022-12-29T03:41:48.625Z,0.90
2022-12-29T03:42:49.317Z,0.80
2022-12-29T03:43:50.123Z,1.70
2022-12-29T03:44:51.189Z,0.80
2022-12-29T03:45:51.477Z,2.50
2022-12-29T03:46:52.190Z,0.80
2022-12-29T03:47:52.895Z,4.20
2022-12-29T03:48:53.601Z,0.70
2022-12-29T03:49:54.320Z,1.10
2022-12-29T03:50:55.024Z,1.20
2022-12-29T03:51:55.739Z,2.20
2022-12-29T03:52:56.439Z,1.20
2022-12-29T03:53:57.175Z,0.90
2022-12-29T03:54:58.192Z,2.20
2022-12-29T03:55:58.395Z,1.10
2022-12-29T03:56:59.146Z,2.90
2022-12-29T03:57:59.808Z,3.30
2022-12-29T03:59:00.547Z,4.30
2022-12-29T04:00:01.680Z,1.30
2022-12-29T04:01:01.943Z,1.00
2022-12-29T04:02:02.788Z,2.00
2022-12-29T04:03:03.704Z,5.20
2022-12-29T04:04:04.423Z,4.10
2022-12-29T04:05:05.195Z,1.30
2022-12-29T04:06:05.889Z,1.10
2022-12-29T04:07:06.591Z,2.10
2022-12-29T04:08:07.293Z,0.90
2022-12-29T04:09:08.139Z,1.10
2022-12-29T04:10:09.205Z,1.00
2022-12-29T04:11:09.404Z,1.10
2022-12-29T04:12:10.108Z,1.50
2022-12-29T04:13:10.822Z,2.90
2022-12-29T04:14:11.559Z,1.80
2022-12-29T04:15:12.245Z,2.60
2022-12-29T04:16:13.000Z,1.10
2022-12-29T04:17:13.661Z,1.20
2022-12-29T04:18:14.540Z,1.00
2022-12-29T04:19:15.207Z,1.00
2022-12-29T04:20:15.917Z,3.40
2022-12-29T04:21:16.425Z,1.50
2022-12-29T04:22:17.412Z,2.00
2022-12-29T04:23:18.084Z,2.70
2022-12-29T04:24:18.765Z,1.10
2022-12-29T04:25:19.680Z,1.60
2022-12-29T04:26:20.408Z,1.20
2022-12-29T04:27:21.113Z,1.70
2022-12-29T04:28:21.823Z,1.00
2022-12-29T04:29:22.599Z,0.90
2022-12-29T04:30:23.685Z,0.90
2022-12-29T04:31:23.967Z,1.30
2022-12-29T04:32:24.695Z,1.80
2022-12-29T04:33:25.404Z,0.90
2022-12-29T04:34:26.111Z,0.90
2022-12-29T04:35:27.183Z,0.90
2022-12-29T04:36:30.072Z,0.70
2022-12-29T04:37:28.051Z,1.10
2022-12-29T04:38:28.751Z,0.70
2022-12-29T04:39:29.478Z,0.80
2022-12-29T04:40:30.208Z,0.80
2022-12-29T04:41:30.906Z,1.30
2022-12-29T04:42:31.623Z,2.40
2022-12-29T04:43:32.324Z,0.80
2022-12-29T04:44:33.059Z,0.80
2022-12-29T04:45:34.196Z,0.80
2022-12-29T04:46:34.372Z,1.00
2022-12-29T04:47:35.052Z,0.70
2022-12-29T04:48:35.762Z,1.80
2022-12-29T04:49:36.480Z,0.70
2022-12-29T04:50:37.685Z,4.00
2022-12-29T04:51:37.899Z,2.20
2022-12-29T04:52:38.678Z,0.70
2022-12-29T04:53:39.425Z,0.80
2022-12-29T04:54:40.116Z,1.20
2022-12-29T04:55:41.184Z,1.40
2022-12-29T04:56:41.417Z,1.10
2022-12-29T04:57:42.117Z,0.70
2022-12-29T04:58:42.812Z,0.50
2022-12-29T04:59:43.537Z,0.60
2022-12-29T05:00:44.233Z,0.70
2022-12-29T05:01:45.086Z,1.00
2022-12-29T05:02:46.029Z,0.70
2022-12-29T05:03:46.430Z,3.60
2022-12-29T05:04:47.090Z,0.70
2022-12-29T05:05:47.806Z,0.70
2022-12-29T05:06:48.535Z,0.60
2022-12-29T05:07:49.229Z,1.20
2022-12-29T05:08:49.934Z,0.70
2022-12-29T05:09:50.656Z,1.30
2022-12-29T05:10:51.703Z,1.00
2022-12-29T05:11:51.911Z,0.80
2022-12-29T05:12:52.632Z,0.60
2022-12-29T05:13:53.335Z,0.60
2022-12-29T05:14:54.065Z,0.60
2022-12-29T05:15:55.210Z,0.60
2022-12-29T05:16:55.391Z,0.60
2022-12-29T05:17:56.101Z,0.70
2022-12-29T05:18:56.820Z,1.50
2022-12-29T05:19:57.536Z,0.70
2022-12-29T05:20:58.683Z,0.80
2022-12-29T05:21:58.894Z,1.60
2022-12-29T05:22:59.608Z,0.70
2022-12-29T05:24:00.335Z,0.60
2022-12-29T05:25:01.053Z,0.90
2022-12-29T05:26:02.203Z,1.80
2022-12-29T05:27:02.411Z,1.00
2022-12-29T05:28:03.120Z,0.80
2022-12-29T05:29:03.835Z,0.80
2022-12-29T05:30:04.560Z,2.00
2022-12-29T05:31:05.303Z,0.80
2022-12-29T05:32:05.957Z,1.00
2022-12-29T05:33:06.666Z,0.80
2022-12-29T05:34:07.276Z,1.70
2022-12-29T05:35:07.795Z,1.70
2022-12-29T05:36:08.506Z,1.40
2022-12-29T05:37:09.228Z,0.80
2022-12-29T05:38:09.918Z,1.00
2022-12-29T05:39:10.639Z,1.90
2022-12-29T05:40:11.365Z,0.70
2022-12-29T05:41:12.278Z,0.80
2022-12-29T05:42:12.927Z,1.00
2022-12-29T05:43:13.632Z,1.00
2022-12-29T05:44:14.337Z,4.40
2022-12-29T05:45:15.079Z,1.80
2022-12-29T05:46:15.853Z,1.20
2022-12-29T05:47:16.509Z,1.80
2022-12-29T05:48:17.499Z,0.70
2022-12-29T05:49:18.205Z,0.70
2022-12-29T05:50:19.059Z,2.40
2022-12-29T05:51:19.766Z,0.80
2022-12-29T05:52:20.485Z,0.80
2022-12-29T05:53:21.201Z,1.20
2022-12-29T05:54:21.895Z,3.40
2022-12-29T05:55:22.652Z,1.00
2022-12-29T05:56:23.702Z,0.70
2022-12-29T05:57:23.927Z,1.20
2022-12-29T05:58:24.634Z,1.40
2022-12-29T05:59:25.365Z,1.10
2022-12-29T06:00:26.091Z,2.20
2022-12-29T06:01:26.916Z,2.80
2022-12-29T06:02:27.773Z,3.60
2022-12-29T06:03:28.679Z,1.00
2022-12-29T06:04:29.495Z,1.20
2022-12-29T06:05:30.201Z,0.80
2022-12-29T06:06:31.190Z,0.80
2022-12-29T06:07:31.469Z,0.80
2022-12-29T06:08:32.183Z,1.30
2022-12-29T06:09:32.883Z,1.50
2022-12-29T06:10:33.754Z,0.90
2022-12-29T06:11:34.454Z,1.00
2022-12-29T06:12:35.158Z,0.80
2022-12-29T06:13:35.864Z,0.70
2022-12-29T06:14:36.607Z,0.80
2022-12-29T06:15:37.340Z,1.20
2022-12-29T06:16:38.267Z,0.70
2022-12-29T06:17:38.943Z,0.70
2022-12-29T06:18:39.671Z,0.70
2022-12-29T06:19:40.354Z,0.80
2022-12-29T06:20:41.064Z,0.90
2022-12-29T06:21:42.193Z,0.70
2022-12-29T06:22:42.404Z,0.80
2022-12-29T06:23:43.159Z,3.30
2022-12-29T06:24:43.867Z,0.70
2022-12-29T06:25:44.597Z,0.80
2022-12-29T06:26:45.696Z,0.70
2022-12-29T06:27:45.899Z,3.90
2022-12-29T06:28:46.603Z,1.00
2022-12-29T06:29:47.326Z,1.10
2022-12-29T06:30:48.075Z,0.70
2022-12-29T06:31:48.820Z,2.70
2022-12-29T06:32:49.475Z,2.10
2022-12-29T06:33:50.441Z,3.80
2022-12-29T06:34:51.102Z,1.20
2022-12-29T06:35:51.804Z,2.20
2022-12-29T06:36:52.528Z,1.60
2022-12-29T06:37:53.234Z,1.40
2022-12-29T06:38:53.937Z,1.50
2022-12-29T06:39:54.661Z,2.60
2022-12-29T06:40:55.411Z,1.00
2022-12-29T06:41:56.096Z,0.90
2022-12-29T06:42:56.799Z,2.00
2022-12-29T06:43:57.511Z,2.10
2022-12-29T06:44:58.213Z,1.40
2022-12-29T06:45:59.072Z,0.90
2022-12-29T06:46:59.778Z,1.00
2022-12-29T06:48:00.497Z,1.10
2022-12-29T06:49:01.205Z,2.50
2022-12-29T06:50:01.918Z,2.80
2022-12-29T06:51:02.598Z,3.50
2022-12-29T06:52:08.933Z,1.70
2022-12-29T06:53:04.801Z,2.20
2022-12-29T06:54:04.521Z,1.00
2022-12-29T06:55:05.208Z,5.00
2022-12-29T06:56:05.936Z,1.10
2022-12-29T06:57:06.705Z,1.00
2022-12-29T06:58:07.474Z,1.30
2022-12-29T06:59:08.179Z,0.70
2022-12-29T07:00:08.883Z,1.80
2022-12-29T07:01:09.643Z,2.30
2022-12-29T07:02:10.891Z,2.10
2022-12-29T07:03:11.232Z,0.90
2022-12-29T07:04:11.947Z,1.10
2022-12-29T07:05:12.635Z,1.20
2022-12-29T07:06:13.390Z,2.10
2022-12-29T07:07:14.118Z,1.00
2022-12-29T07:08:14.984Z,1.90
2022-12-29T07:09:15.700Z,1.80
2022-12-29T07:10:16.405Z,3.90
2022-12-29T07:11:17.384Z,1.90
2022-12-29T07:12:18.246Z,0.90
2022-12-29T07:13:18.929Z,2.10
2022-12-29T07:14:19.634Z,3.90
2022-12-29T07:15:20.339Z,1.10
2022-12-29T07:16:21.130Z,1.20
2022-12-29T07:17:21.805Z,0.80
2022-12-29T07:18:22.522Z,2.20
2022-12-29T07:19:23.231Z,1.10
2022-12-29T07:20:27.076Z,1.10
2022-12-29T07:21:24.512Z,2.00
2022-12-29T07:22:25.705Z,3.60
2022-12-29T07:23:25.907Z,1.60
2022-12-29T07:24:26.628Z,0.80
2022-12-29T07:25:27.317Z,1.10
2022-12-29T07:26:32.905Z,4.00
2022-12-29T07:27:29.641Z,1.80
2022-12-29T07:28:29.345Z,3.30
2022-12-29T07:29:30.044Z,1.20
2022-12-29T07:30:30.754Z,0.80
2022-12-29T07:31:31.559Z,1.60
2022-12-29T07:32:32.238Z,1.00
2022-12-29T07:33:32.956Z,2.00
2022-12-29T07:34:33.673Z,1.80
2022-12-29T07:35:34.370Z,1.50
2022-12-29T07:36:35.077Z,2.60
2022-12-29T07:37:36.200Z,1.90
2022-12-29T07:38:36.405Z,0.90
2022-12-29T07:39:37.116Z,0.70
2022-12-29T07:40:37.825Z,1.60
2022-12-29T07:41:38.543Z,5.40
2022-12-29T07:42:39.215Z,2.00
2022-12-29T07:43:39.931Z,1.30
2022-12-29T07:44:40.633Z,2.50
2022-12-29T07:45:41.390Z,2.60
2022-12-29T07:46:56.704Z,1.10
2022-12-29T07:47:43.678Z,1.50
2022-12-29T07:48:43.384Z,1.40
2022-12-29T07:49:44.132Z,3.10
2022-12-29T07:50:44.837Z,1.50
2022-12-29T07:51:45.550Z,2.20
2022-12-29T07:52:46.256Z,2.90
2022-12-29T07:53:46.958Z,4.00
2022-12-29T07:54:47.664Z,1.00
2022-12-29T07:55:48.379Z,2.20
2022-12-29T07:56:49.106Z,2.90
2022-12-29T07:57:50.209Z,2.10
2022-12-29T07:58:50.408Z,6.10
2022-12-29T07:59:51.113Z,4.70
2022-12-29T08:00:51.818Z,1.90
2022-12-29T08:01:52.720Z,2.00
2022-12-29T08:02:53.428Z,2.40
2022-12-29T08:03:57.564Z,4.30
2022-12-29T08:04:55.027Z,1.90
2022-12-29T08:05:55.718Z,3.40
2022-12-29T08:06:56.430Z,2.60
2022-12-29T08:07:57.139Z,3.30
2022-12-29T08:08:57.843Z,2.30
2022-12-29T08:09:58.547Z,4.60
2022-12-29T08:10:59.267Z,6.50
2022-12-29T08:11:59.976Z,2.70
2022-12-29T08:13:00.727Z,4.40
2022-12-29T08:14:01.445Z,5.10
2022-12-29T08:15:02.135Z,4.90
2022-12-29T08:16:02.916Z,2.20
2022-12-29T08:17:03.756Z,2.30
2022-12-29T08:18:04.702Z,1.60
2022-12-29T08:19:04.907Z,1.90
2022-12-29T08:20:05.642Z,2.70
2022-12-29T08:21:06.346Z,3.60
2022-12-29T08:22:07.059Z,3.70
2022-12-29T08:23:08.207Z,1.90
2022-12-29T08:24:08.411Z,3.60
2022-12-29T08:25:09.137Z,6.70
2022-12-29T08:26:09.834Z,4.00
2022-12-29T08:27:18.237Z,4.70
2022-12-29T08:28:12.139Z,2.50
2022-12-29T08:29:11.852Z,4.00
2022-12-29T08:30:12.555Z,5.30
2022-12-29T08:31:13.322Z,2.90
2022-12-29T08:32:13.992Z,2.70
2022-12-29T08:33:14.705Z,2.50
2022-12-29T08:34:15.410Z,2.90
2022-12-29T08:35:16.113Z,2.60
2022-12-29T08:36:16.818Z,2.30
2022-12-29T08:37:17.539Z,2.30
2022-12-29T08:38:18.703Z,1.70
2022-12-29T08:39:18.908Z,4.70
2022-12-29T08:40:19.613Z,3.80
2022-12-29T08:41:20.324Z,4.90
2022-12-29T08:42:21.037Z,4.70
2022-12-29T08:43:21.763Z,4.30
2022-12-29T08:44:22.481Z,4.50
2022-12-29T08:45:23.185Z,2.20
2022-12-29T08:46:23.965Z,3.80
2022-12-29T08:47:24.636Z,5.50
2022-12-29T08:48:25.343Z,1.60
2022-12-29T08:49:26.044Z,5.70
2022-12-29T08:50:27.030Z,8.40
2022-12-29T08:51:27.722Z,2.70
2022-12-29T08:52:28.428Z,7.20
2022-12-29T08:53:29.180Z,3.50
2022-12-29T08:54:29.891Z,5.80
2022-12-29T08:55:30.593Z,5.60
2022-12-29T08:56:31.298Z,5.80
2022-12-29T08:57:32.027Z,4.40
2022-12-29T08:58:32.731Z,4.40
2022-12-29T08:59:33.431Z,3.20
2022-12-29T09:00:34.147Z,6.70
2022-12-29T09:01:34.967Z,5.40
2022-12-29T09:02:35.867Z,3.30
2022-12-29T09:04:38.336Z,8.50
2022-12-29T09:05:38.012Z,4.20
2022-12-29T09:06:40.746Z,2.70
2022-12-29T09:07:39.554Z,4.70
2022-12-29T09:08:40.254Z,8.50
2022-12-29T09:09:40.960Z,11.70
2022-12-29T09:10:41.737Z,10.30
2022-12-29T09:11:42.441Z,4.50
2022-12-29T09:12:43.164Z,6.00
2022-12-29T09:13:44.226Z,7.20
2022-12-29T09:14:44.441Z,9.60
2022-12-29T09:15:45.199Z,6.40
2022-12-29T09:16:45.844Z,11.20
2022-12-29T09:17:46.638Z,6.30
2022-12-29T09:18:47.716Z,6.10
2022-12-29T09:19:47.916Z,7.00
2022-12-29T09:20:48.631Z,11.20
2022-12-29T09:21:49.331Z,3.30
2022-12-29T09:22:50.046Z,7.30
2022-12-29T09:23:51.212Z,5.00
2022-12-29T09:24:51.429Z,5.90
2022-12-29T09:25:52.144Z,7.30
2022-12-29T09:26:52.844Z,6.50
2022-12-29T09:27:53.572Z,6.70
2022-12-29T09:28:54.728Z,6.40
2022-12-29T09:29:54.928Z,9.00
2022-12-29T09:30:55.681Z,4.30
2022-12-29T09:31:56.328Z,2.30
2022-12-29T09:32:57.066Z,9.10
2022-12-29T09:33:57.749Z,8.20
2022-12-29T09:34:58.471Z,3.20
2022-12-29T09:35:59.209Z,5.00
2022-12-29T09:36:59.919Z,5.40
2022-12-29T09:38:00.633Z,4.50
2022-12-29T09:39:01.717Z,3.50
2022-12-29T09:40:01.949Z,6.40
2022-12-29T09:41:02.634Z,9.60
2022-12-29T09:42:03.358Z,4.40
2022-12-29T09:43:04.082Z,5.90
2022-12-29T09:44:05.231Z,5.10
2022-12-29T09:45:05.439Z,4.60
2022-12-29T09:46:06.138Z,11.90
2022-12-29T09:47:06.902Z,6.10
2022-12-29T09:48:09.838Z,6.20
2022-12-29T09:49:08.225Z,4.20
2022-12-29T09:50:08.938Z,8.00
2022-12-29T09:51:09.646Z,7.30
2022-12-29T09:52:10.351Z,3.60
2022-12-29T09:53:11.074Z,3.30
2022-12-29T09:54:11.782Z,6.20
2022-12-29T09:55:14.291Z,5.90
2022-12-29T09:56:13.091Z,8.20
2022-12-29T09:57:13.801Z,3.10
2022-12-29T09:58:14.538Z,8.10
2022-12-29T09:59:15.200Z,1.80
2022-12-29T10:00:15.913Z,6.00
2022-12-29T10:01:16.631Z,3.00
2022-12-29T10:02:17.493Z,2.60
2022-12-29T10:03:18.386Z,5.00
2022-12-29T10:04:19.072Z,7.30
2022-12-29T10:05:19.782Z,6.60
2022-12-29T10:06:20.487Z,4.10
2022-12-29T10:07:29.988Z,5.90
2022-12-29T10:08:22.795Z,8.70
2022-12-29T10:09:22.297Z,6.30
2022-12-29T10:10:23.024Z,7.60
2022-12-29T10:11:23.926Z,3.70
2022-12-29T10:12:24.447Z,4.60
2022-12-29T10:13:25.165Z,7.70
2022-12-29T10:14:25.842Z,3.70
2022-12-29T10:15:26.547Z,4.90
2022-12-29T10:16:27.300Z,3.70
2022-12-29T10:17:27.990Z,4.70
2022-12-29T10:18:28.719Z,3.40
2022-12-29T10:19:33.175Z,5.90
2022-12-29T10:20:30.189Z,5.90
2022-12-29T10:21:30.879Z,3.30
2022-12-29T10:22:31.588Z,9.40
2022-12-29T10:23:32.300Z,3.20
2022-12-29T10:24:33.217Z,2.50
2022-12-29T10:25:33.931Z,2.10
2022-12-29T10:26:34.654Z,5.00
2022-12-29T10:27:35.448Z,5.40
2022-12-29T10:28:36.181Z,4.30
2022-12-29T10:29:37.300Z,6.10
2022-12-29T10:30:37.506Z,3.00
2022-12-29T10:31:38.321Z,6.80
2022-12-29T10:32:38.979Z,4.50
2022-12-29T10:33:39.707Z,3.30
2022-12-29T10:34:40.729Z,4.80
2022-12-29T10:35:40.926Z,3.50
2022-12-29T10:36:41.635Z,5.40
2022-12-29T10:37:42.336Z,7.00
2022-12-29T10:38:43.045Z,5.30
2022-12-29T10:39:43.776Z,5.30
2022-12-29T10:40:44.465Z,3.70
2022-12-29T10:41:45.170Z,4.90
2022-12-29T10:42:45.882Z,7.10
2022-12-29T10:43:46.614Z,3.00
2022-12-29T10:44:47.311Z,6.80
2022-12-29T10:45:48.059Z,4.90
2022-12-29T10:46:48.739Z,5.50
2022-12-29T10:47:49.448Z,7.80
2022-12-29T10:48:50.179Z,3.40
2022-12-29T10:49:51.234Z,4.60
2022-12-29T10:50:53.021Z,3.50
2022-12-29T10:51:52.364Z,4.50
2022-12-29T10:52:53.068Z,5.70
2022-12-29T10:53:53.789Z,5.10
2022-12-29T10:54:54.499Z,3.80
2022-12-29T10:55:55.211Z,1.90
2022-12-29T10:56:55.919Z,3.80
2022-12-29T10:57:56.611Z,3.60
2022-12-29T10:58:57.343Z,4.50
2022-12-29T10:59:58.014Z,6.00
2022-12-29T11:00:58.788Z,5.20
2022-12-29T11:01:59.591Z,6.00
2022-12-29T11:03:00.555Z,4.30
2022-12-29T11:04:04.334Z,2.20
2022-12-29T11:05:01.998Z,5.70
2022-12-29T11:06:02.670Z,4.10
2022-12-29T11:07:03.397Z,3.60
2022-12-29T11:08:04.104Z,4.50
2022-12-29T11:09:04.819Z,2.70
2022-12-29T11:10:05.527Z,5.90
2022-12-29T11:11:06.241Z,3.20
2022-12-29T11:12:06.941Z,4.00
2022-12-29T11:13:07.647Z,4.60
2022-12-29T11:14:08.372Z,3.80
2022-12-29T11:15:09.224Z,6.10
2022-12-29T11:16:09.960Z,3.20
2022-12-29T11:17:10.643Z,6.40
2022-12-29T11:18:11.369Z,3.80
2022-12-29T11:19:12.080Z,4.00
2022-12-29T11:20:13.259Z,7.50
2022-12-29T11:21:13.437Z,5.50
2022-12-29T11:22:14.144Z,3.70
2022-12-29T11:23:14.852Z,5.60
2022-12-29T11:24:15.560Z,7.70
2022-12-29T11:25:16.726Z,7.90
2022-12-29T11:26:16.934Z,4.40
2022-12-29T11:27:17.641Z,4.50
2022-12-29T11:28:18.351Z,8.70
2022-12-29T11:29:19.070Z,5.80
2022-12-29T11:30:19.750Z,5.10
2022-12-29T11:31:20.503Z,3.90
2022-12-29T11:32:26.248Z,5.50
2022-12-29T11:33:22.745Z,4.00
2022-12-29T11:34:22.456Z,4.00
2022-12-29T11:35:23.248Z,9.60
2022-12-29T11:36:23.974Z,6.80
2022-12-29T11:37:24.687Z,4.10
2022-12-29T11:38:25.399Z,4.30
2022-12-29T11:39:26.122Z,3.00
2022-12-29T11:40:26.836Z,2.50
2022-12-29T11:41:27.544Z,3.50
2022-12-29T11:42:28.249Z,8.90
2022-12-29T11:43:28.956Z,3.10
2022-12-29T11:44:29.702Z,6.00
2022-12-29T11:45:30.747Z,3.70
2022-12-29T11:46:31.012Z,5.90
2022-12-29T11:47:31.690Z,6.50
2022-12-29T11:48:32.413Z,6.20
2022-12-29T11:49:33.104Z,5.10
2022-12-29T11:50:34.261Z,7.70
2022-12-29T11:51:34.452Z,7.50
2022-12-29T11:52:35.153Z,11.40
2022-12-29T11:53:35.862Z,5.70
2022-12-29T11:54:36.573Z,7.60
2022-12-29T11:55:37.729Z,5.20
2022-12-29T11:56:40.773Z,8.50
2022-12-29T11:57:38.684Z,3.80
2022-12-29T11:58:39.487Z,6.60
2022-12-29T11:59:40.139Z,3.80
2022-12-29T12:00:41.268Z,8.70
2022-12-29T12:01:41.491Z,7.00
2022-12-29T12:02:43.525Z,2.80
2022-12-29T12:03:43.157Z,5.80
2022-12-29T12:04:43.847Z,3.60
2022-12-29T12:05:44.749Z,6.70
2022-12-29T12:06:45.439Z,11.00
2022-12-29T12:07:46.189Z,7.20
2022-12-29T12:08:46.898Z,6.00
2022-12-29T12:09:47.602Z,6.90
2022-12-29T12:10:48.737Z,5.70
2022-12-29T12:11:48.940Z,6.40
2022-12-29T12:12:49.653Z,6.80
2022-12-29T12:13:50.357Z,8.20
2022-12-29T12:14:51.105Z,6.40
2022-12-29T12:15:56.332Z,4.60
2022-12-29T12:16:53.451Z,4.10
2022-12-29T12:17:53.123Z,6.90
2022-12-29T12:18:53.831Z,7.40
2022-12-29T12:19:54.540Z,7.10
2022-12-29T12:20:55.275Z,3.30
2022-12-29T12:21:55.960Z,8.10
2022-12-29T12:22:56.664Z,9.40
2022-12-29T12:23:57.370Z,5.30
2022-12-29T12:24:58.074Z,8.60
2022-12-29T12:25:59.243Z,6.80
2022-12-29T12:26:59.442Z,9.00
2022-12-29T12:28:00.143Z,6.70
2022-12-29T12:29:00.855Z,4.00
2022-12-29T12:30:01.575Z,5.50
2022-12-29T12:31:02.864Z,11.90
2022-12-29T12:32:03.036Z,4.30
2022-12-29T12:33:03.739Z,3.40
2022-12-29T12:34:04.444Z,4.10
2022-12-29T12:35:05.157Z,7.70
2022-12-29T12:36:05.886Z,3.10
2022-12-29T12:37:06.569Z,3.70
2022-12-29T12:38:07.279Z,7.20
2022-12-29T12:39:07.989Z,2.70
2022-12-29T12:40:08.706Z,3.70
2022-12-29T12:41:09.412Z,5.20
2022-12-29T12:42:10.120Z,5.80
2022-12-29T12:43:10.830Z,5.50
2022-12-29T12:44:11.539Z,4.60
2022-12-29T12:45:12.255Z,5.00
2022-12-29T12:46:13.006Z,4.70
2022-12-29T12:47:13.664Z,2.90
2022-12-29T12:48:14.354Z,5.40
2022-12-29T12:49:15.067Z,5.00
2022-12-29T12:50:15.777Z,3.50
2022-12-29T12:51:16.949Z,3.90
2022-12-29T12:52:17.077Z,6.30
2022-12-29T12:53:17.785Z,7.50
2022-12-29T12:54:18.502Z,5.60
2022-12-29T12:55:19.191Z,8.90
2022-12-29T12:56:19.959Z,9.00
2022-12-29T12:57:20.623Z,4.70
2022-12-29T12:58:21.334Z,7.10
2022-12-29T12:59:22.043Z,2.90
2022-12-29T13:00:22.765Z,4.20
2022-12-29T13:01:23.842Z,2.70
2022-12-29T13:02:24.221Z,6.40
2022-12-29T13:03:24.619Z,6.00
2022-12-29T13:04:25.418Z,4.50
2022-12-29T13:05:27.103Z,5.20
2022-12-29T13:06:27.256Z,6.40
2022-12-29T13:07:27.446Z,7.10
2022-12-29T13:08:28.154Z,7.00
2022-12-29T13:09:28.868Z,9.10
2022-12-29T13:10:29.573Z,5.20
2022-12-29T13:11:30.288Z,5.70
2022-12-29T13:12:30.995Z,6.60
2022-12-29T13:13:31.823Z,7.40
2022-12-29T13:14:32.530Z,5.00
2022-12-29T13:15:33.327Z,4.80
2022-12-29T13:16:34.055Z,4.50
2022-12-29T13:17:34.733Z,5.00
2022-12-29T13:18:35.458Z,9.20
2022-12-29T13:19:36.151Z,8.60
2022-12-29T13:20:36.852Z,8.50
2022-12-29T13:21:37.659Z,9.80
2022-12-29T13:22:38.284Z,3.80
2022-12-29T13:23:38.990Z,5.50
2022-12-29T13:24:39.695Z,4.70
2022-12-29T13:25:40.403Z,7.80
2022-12-29T13:26:41.261Z,4.60
2022-12-29T13:27:41.971Z,4.50
2022-12-29T13:28:42.680Z,7.00